Wetterdaten: Woche 09.05.16 - 15.05.16 (KW19)
Datum Zeit Auen-Temp. Temp gefhlt Luftfeuchte Luftdruck Regen Wind Richtung Sonnenschein Taupunkt Windben
09.05.2016 00:00 8,5 C 8,3 C 76 % 1013,0 hPa 0,0 mm 1,6 km/h (1 Bft) S-SO 0,00 h 4,6 C 2,3 km/h (1 Bft)
09.05.2016 01:00 7,2 C 7,0 C 78 % 1013,0 hPa 0,0 mm 1,4 km/h (1 Bft) SO 0,00 h 3,6 C 1,2 km/h (1 Bft)
09.05.2016 02:00 5,9 C 5,7 C 79 % 1012,7 hPa 0,0 mm 0,8 km/h (0 Bft) O-NO 0,00 h 2,5 C 1,3 km/h (1 Bft)
09.05.2016 03:00 5,4 C 5,2 C 80 % 1012,3 hPa 0,0 mm 0,2 km/h (0 Bft) N 0,00 h 2,2 C 0,0 km/h (0 Bft)
09.05.2016 04:00 6,1 C 5,9 C 80 % 1012,3 hPa 0,0 mm 0,1 km/h (0 Bft) N 0,00 h 2,9 C 0,3 km/h (0 Bft)
09.05.2016 05:00 5,7 C 5,6 C 80 % 1012,3 hPa 0,0 mm 0,0 km/h (0 Bft) N 0,00 h 2,6 C 0,0 km/h (0 Bft)
09.05.2016 06:00 7,7 C 10,1 C 79 % 1012,3 hPa 0,0 mm 0,2 km/h (0 Bft) O 0,42 h 4,3 C 0,2 km/h (0 Bft)
09.05.2016 07:00 12,3 C 20,4 C 69 % 1012,0 hPa 0,0 mm 0,5 km/h (0 Bft) NO 1,00 h 6,8 C 0,4 km/h (0 Bft)
09.05.2016 08:00 16,2 C 21,9 C 63 % 1013,3 hPa 0,0 mm 0,2 km/h (0 Bft) N 1,00 h 9,0 C 0,3 km/h (0 Bft)
09.05.2016 09:00 20,4 C 25,9 C 51 % 1013,6 hPa 0,0 mm 3,1 km/h (1 Bft) O-NO 1,00 h 9,8 C 5,4 km/h (1 Bft)
09.05.2016 10:00 22,4 C 26,5 C 44 % 1013,8 hPa 0,0 mm 7,6 km/h (2 Bft) N-NO 1,00 h 9,7 C 10,2 km/h (2 Bft)
09.05.2016 11:00 23,2 C 27,1 C 40 % 1014,8 hPa 0,0 mm 7,8 km/h (2 Bft) O-NO 1,00 h 8,7 C 10,9 km/h (2 Bft)
09.05.2016 12:00 22,0 C 23,9 C 40 % 1014,8 hPa 0,0 mm 10,6 km/h (2 Bft) N-NO 0,33 h 7,6 C 14,4 km/h (3 Bft)
09.05.2016 13:00 22,8 C 24,7 C 39 % 1014,4 hPa 0,0 mm 9,0 km/h (2 Bft) NO 0,33 h 8,0 C 9,2 km/h (2 Bft)
09.05.2016 14:00 22,1 C 24,0 C 38 % 1014,4 hPa 0,0 mm 8,9 km/h (2 Bft) NO 0,17 h 7,1 C 11,3 km/h (2 Bft)
09.05.2016 15:00 21,6 C 23,0 C 39 % 1014,2 hPa 0,0 mm 10,5 km/h (2 Bft) O-NO 0,08 h 7,0 C 13,0 km/h (3 Bft)
09.05.2016 16:00 21,8 C 23,7 C 39 % 1014,3 hPa 0,0 mm 6,8 km/h (2 Bft) N-NO 0,33 h 7,1 C 9,1 km/h (2 Bft)
09.05.2016 17:00 20,7 C 22,2 C 45 % 1014,2 hPa 0,0 mm 1,2 km/h (1 Bft) NO 0,00 h 8,3 C 0,9 km/h (0 Bft)
09.05.2016 18:00 20,1 C 21,5 C 46 % 1014,0 hPa 0,0 mm 0,3 km/h (0 Bft) N 0,00 h 8,1 C 0,3 km/h (0 Bft)
09.05.2016 19:00 18,9 C 20,8 C 49 % 1013,7 hPa 0,0 mm 0,4 km/h (0 Bft) O-NO 0,42 h 7,8 C 0,7 km/h (0 Bft)
09.05.2016 20:00 16,6 C 17,0 C 53 % 1013,7 hPa 0,0 mm 0,6 km/h (0 Bft) SO 0,00 h 6,8 C 0,8 km/h (0 Bft)
09.05.2016 21:00 13,7 C 13,6 C 59 % 1014,1 hPa 0,0 mm 0,0 km/h (0 Bft) N 0,00 h 5,7 C 0,0 km/h (0 Bft)
09.05.2016 22:00 11,8 C 11,5 C 61 % 1014,1 hPa 0,0 mm 0,0 km/h (0 Bft) N 0,00 h 4,6 C 0,0 km/h (0 Bft)
09.05.2016 23:00 10,7 C 10,5 C 62 % 1013,8 hPa 0,0 mm 0,1 km/h (0 Bft) O-NO 0,00 h 3,7 C 0,3 km/h (0 Bft)
10.05.2016 00:00 10,0 C 9,8 C 66 % 1013,3 hPa 0,0 mm 0,1 km/h (0 Bft) SO 0,00 h 4,0 C 0,0 km/h (0 Bft)
10.05.2016 01:00 8,8 C 8,6 C 69 % 1013,1 hPa 0,0 mm 0,0 km/h (0 Bft) N 0,00 h 3,4 C 0,0 km/h (0 Bft)
10.05.2016 02:00 8,3 C 8,1 C 73 % 1012,7 hPa 0,0 mm 0,1 km/h (0 Bft) N 0,00 h 3,6 C 0,3 km/h (0 Bft)
10.05.2016 03:00 8,6 C 8,9 C 74 % 1012,3 hPa 0,0 mm 0,5 km/h (0 Bft) S-SO 0,00 h 4,2 C 1,5 km/h (1 Bft)
10.05.2016 04:00 9,3 C 9,4 C 74 % 1011,9 hPa 0,0 mm 0,0 km/h (0 Bft) N 0,00 h 4,9 C 0,0 km/h (0 Bft)
10.05.2016 05:00 9,7 C 9,7 C 73 % 1011,5 hPa 0,0 mm 0,0 km/h (0 Bft) N 0,00 h 5,1 C 0,0 km/h (0 Bft)
10.05.2016 06:00 9,9 C 10,1 C 73 % 1011,2 hPa 0,0 mm 0,0 km/h (0 Bft) N 0,00 h 5,3 C 0,0 km/h (0 Bft)
10.05.2016 07:00 11,9 C 13,1 C 73 % 1011,1 hPa 0,0 mm 0,0 km/h (0 Bft) N 0,08 h 7,3 C 0,0 km/h (0 Bft)
10.05.2016 08:00 15,6 C 19,7 C 66 % 1011,1 hPa 0,0 mm 0,1 km/h (0 Bft) N 1,00 h 9,2 C 0,0 km/h (0 Bft)
10.05.2016 09:00 18,0 C 20,7 C 55 % 1011,2 hPa 0,0 mm 1,7 km/h (1 Bft) N-NO 0,67 h 9,0 C 1,3 km/h (1 Bft)
10.05.2016 10:00 18,4 C 19,9 C 55 % 1011,0 hPa 0,0 mm 6,1 km/h (2 Bft) N-NO 0,00 h 9,3 C 8,0 km/h (2 Bft)
10.05.2016 11:00 19,6 C 21,0 C 55 % 1010,9 hPa 0,0 mm 7,9 km/h (2 Bft) N-NO 0,00 h 10,4 C 8,8 km/h (2 Bft)
10.05.2016 12:00 20,5 C 22,2 C 55 % 1011,0 hPa 0,0 mm 8,0 km/h (2 Bft) NO 0,00 h 11,1 C 10,3 km/h (2 Bft)
10.05.2016 13:00 20,4 C 21,9 C 50 % 1011,0 hPa 0,0 mm 5,6 km/h (1 Bft) NO 0,17 h 9,7 C 8,1 km/h (2 Bft)
10.05.2016 14:00 19,3 C 20,0 C 60 % 1011,5 hPa 0,0 mm 6,4 km/h (2 Bft) NO 0,17 h 11,4 C 10,1 km/h (2 Bft)
10.05.2016 15:00 19,6 C 21,0 C 58 % 1011,5 hPa 0,0 mm 8,1 km/h (2 Bft) N-NO 0,00 h 11,1 C 9,6 km/h (2 Bft)
10.05.2016 16:00 16,0 C 15,8 C 66 % 1012,0 hPa 0,7 mm 7,9 km/h (2 Bft) NW 0,00 h 9,6 C 9,8 km/h (2 Bft)
10.05.2016 17:00 13,8 C 13,6 C 81 % 1012,3 hPa 2,1 mm 2,3 km/h (1 Bft) O-NO 0,00 h 10,6 C 2,4 km/h (1 Bft)
10.05.2016 18:00 15,1 C 16,5 C 78 % 1011,8 hPa 0,0 mm 0,3 km/h (0 Bft) N-NO 0,08 h 11,2 C 0,6 km/h (0 Bft)
10.05.2016 19:00 13,7 C 14,0 C 80 % 1011,6 hPa 0,0 mm 0,0 km/h (0 Bft) N 0,00 h 10,2 C 0,0 km/h (0 Bft)
10.05.2016 20:00 12,1 C 12,9 C 81 % 1011,4 hPa 0,0 mm 0,0 km/h (0 Bft) N 0,00 h 8,9 C 0,0 km/h (0 Bft)
10.05.2016 21:00 10,2 C 9,9 C 85 % 1011,5 hPa 0,0 mm 0,0 km/h (0 Bft) N 0,00 h 7,7 C 0,0 km/h (0 Bft)
10.05.2016 22:00 9,4 C 9,2 C 87 % 1011,5 hPa 0,0 mm 0,1 km/h (0 Bft) N 0,00 h 7,3 C 0,3 km/h (0 Bft)
10.05.2016 23:00 8,6 C 8,4 C 88 % 1011,1 hPa 0,0 mm 0,0 km/h (0 Bft) N 0,00 h 6,7 C 0,0 km/h (0 Bft)
11.05.2016 00:00 8,1 C 7,9 C 88 % 1010,5 hPa 0,0 mm 0,0 km/h (0 Bft) N 0,00 h 6,2 C 0,0 km/h (0 Bft)
11.05.2016 01:00 7,4 C 7,3 C 88 % 1010,0 hPa 0,0 mm 0,0 km/h (0 Bft) N 0,00 h 5,6 C 0,6 km/h (0 Bft)
11.05.2016 02:00 7,1 C 7,0 C 90 % 1009,6 hPa 0,0 mm 0,2 km/h (0 Bft) N 0,00 h 5,5 C 0,0 km/h (0 Bft)
11.05.2016 03:00 6,4 C 6,3 C 90 % 1009,2 hPa 0,0 mm 0,2 km/h (0 Bft) O-NO 0,00 h 4,9 C 0,0 km/h (0 Bft)
11.05.2016 04:00 5,8 C 5,7 C 91 % 1008,4 hPa 0,0 mm 0,0 km/h (0 Bft) N 0,00 h 4,4 C 0,0 km/h (0 Bft)
11.05.2016 05:00 5,5 C 5,4 C 91 % 1007,6 hPa 0,0 mm 0,0 km/h (0 Bft) N 0,00 h 4,1 C 0,0 km/h (0 Bft)
11.05.2016 06:00 6,1 C 6,6 C 90 % 1007,8 hPa 0,0 mm 0,0 km/h (0 Bft) N 0,00 h 4,6 C 0,0 km/h (0 Bft)
11.05.2016 07:00 7,7 C 8,1 C 90 % 1007,5 hPa 0,0 mm 0,1 km/h (0 Bft) N 0,00 h 6,1 C 0,3 km/h (0 Bft)
11.05.2016 08:00 12,0 C 15,0 C 87 % 1007,1 hPa 0,0 mm 0,4 km/h (0 Bft) N-NO 0,58 h 10,0 C 1,0 km/h (0 Bft)
11.05.2016 09:00 16,3 C 20,2 C 76 % 1006,8 hPa 0,0 mm 5,3 km/h (1 Bft) N-NO 0,92 h 12,0 C 7,7 km/h (2 Bft)
11.05.2016 10:00 18,0 C 20,3 C 69 % 1007,0 hPa 0,0 mm 10,8 km/h (2 Bft) NO 0,67 h 12,3 C 15,3 km/h (3 Bft)
11.05.2016 11:00 19,2 C 21,5 C 64 % 1006,7 hPa 0,0 mm 12,4 km/h (3 Bft) N-NO 0,50 h 12,3 C 16,6 km/h (3 Bft)
11.05.2016 12:00 20,6 C 22,2 C 60 % 1006,2 hPa 0,0 mm 15,4 km/h (3 Bft) N-NO 0,00 h 12,5 C 16,2 km/h (3 Bft)
11.05.2016 13:00 21,3 C 22,9 C 56 % 1005,6 hPa 0,0 mm 14,1 km/h (3 Bft) N-NO 0,00 h 12,1 C 19,5 km/h (3 Bft)
11.05.2016 14:00 21,3 C 22,7 C 55 % 1005,2 hPa 0,0 mm 12,6 km/h (3 Bft) N-NO 0,00 h 11,8 C 16,0 km/h (3 Bft)
11.05.2016 15:00 19,4 C 20,1 C 59 % 1005,2 hPa 0,0 mm 5,2 km/h (1 Bft) NO 0,00 h 11,2 C 6,2 km/h (2 Bft)
11.05.2016 16:00 17,7 C 17,7 C 67 % 1004,9 hPa 0,0 mm 2,1 km/h (1 Bft) NO 0,00 h 11,6 C 3,6 km/h (1 Bft)
11.05.2016 17:00 17,5 C 17,9 C 69 % 1004,3 hPa 0,0 mm 3,9 km/h (1 Bft) O-NO 0,00 h 11,7 C 5,1 km/h (1 Bft)
11.05.2016 18:00 17,0 C 17,3 C 70 % 1004,0 hPa 0,0 mm 1,8 km/h (1 Bft) NO 0,00 h 11,5 C 3,5 km/h (1 Bft)
11.05.2016 19:00 16,1 C 16,3 C 71 % 1003,6 hPa 0,0 mm 3,0 km/h (1 Bft) O-NO 0,00 h 10,9 C 4,2 km/h (1 Bft)
11.05.2016 20:00 14,2 C 14,1 C 78 % 1003,1 hPa 0,0 mm 0,7 km/h (0 Bft) O-NO 0,00 h 10,3 C 0,7 km/h (0 Bft)
11.05.2016 21:00 12,6 C 12,4 C 83 % 1002,7 hPa 0,0 mm 0,3 km/h (0 Bft) N 0,00 h 9,8 C 0,5 km/h (0 Bft)
11.05.2016 22:00 11,2 C 11,0 C 86 % 1002,4 hPa 0,0 mm 0,8 km/h (0 Bft) SO 0,00 h 8,9 C 0,6 km/h (0 Bft)
11.05.2016 23:00 10,1 C 9,9 C 85 % 1002,0 hPa 0,0 mm 0,8 km/h (0 Bft) N-NO 0,00 h 7,7 C 1,0 km/h (0 Bft)
12.05.2016 00:00 9,3 C 9,0 C 86 % 1001,7 hPa 0,0 mm 0,9 km/h (0 Bft) O-SO 0,00 h 7,0 C 1,9 km/h (1 Bft)
12.05.2016 01:00 9,0 C 8,8 C 88 % 1001,4 hPa 0,0 mm 0,8 km/h (0 Bft) O 0,00 h 7,0 C 1,2 km/h (1 Bft)
12.05.2016 02:00 8,1 C 8,1 C 89 % 1000,8 hPa 0,0 mm 0,3 km/h (0 Bft) S 0,00 h 6,3 C 0,7 km/h (0 Bft)
12.05.2016 03:00 7,5 C 7,4 C 90 % 1000,2 hPa 0,0 mm 0,1 km/h (0 Bft) N 0,00 h 6,0 C 0,5 km/h (0 Bft)
12.05.2016 04:00 7,9 C 7,7 C 90 % 1000,0 hPa 0,0 mm 0,7 km/h (0 Bft) NO 0,00 h 6,3 C 1,7 km/h (1 Bft)
12.05.2016 05:00 8,1 C 7,9 C 90 % 999,9 hPa 0,0 mm 1,7 km/h (1 Bft) S 0,00 h 6,5 C 2,2 km/h (1 Bft)
12.05.2016 06:00 10,9 C 10,9 C 89 % 1000,0 hPa 0,0 mm 5,9 km/h (2 Bft) S 0,00 h 9,1 C 12,8 km/h (3 Bft)
12.05.2016 07:00 12,2 C 12,7 C 85 % 1000,2 hPa 0,0 mm 7,3 km/h (2 Bft) W 0,00 h 9,9 C 12,4 km/h (3 Bft)
12.05.2016 08:00 11,9 C 12,5 C 83 % 1000,2 hPa 0,0 mm 6,6 km/h (2 Bft) W-SW 0,00 h 9,0 C 9,5 km/h (2 Bft)
12.05.2016 09:00 12,2 C 13,1 C 79 % 1000,3 hPa 0,0 mm 8,3 km/h (2 Bft) W-SW 0,00 h 8,6 C 12,1 km/h (2 Bft)
12.05.2016 10:00 12,5 C 13,5 C 75 % 1000,4 hPa 0,0 mm 8,1 km/h (2 Bft) W-SW 0,00 h 8,1 C 14,9 km/h (3 Bft)
12.05.2016 11:00 12,2 C 12,7 C 72 % 1000,5 hPa 0,0 mm 7,4 km/h (2 Bft) W 0,00 h 7,4 C 9,7 km/h (2 Bft)
12.05.2016 12:00 11,5 C 11,6 C 74 % 1000,6 hPa 0,0 mm 8,5 km/h (2 Bft) W-NW 0,00 h 7,0 C 9,4 km/h (2 Bft)
12.05.2016 13:00 10,4 C 10,2 C 81 % 1000,5 hPa 0,7 mm 8,5 km/h (2 Bft) W-SW 0,00 h 7,4 C 12,0 km/h (2 Bft)
12.05.2016 14:00 10,3 C 10,1 C 83 % 1000,2 hPa 0,7 mm 5,3 km/h (1 Bft) W-SW 0,00 h 7,4 C 5,8 km/h (2 Bft)
12.05.2016 15:00 9,4 C 9,2 C 81 % 1000,3 hPa 1,4 mm 4,8 km/h (1 Bft) S 0,00 h 6,4 C 5,9 km/h (2 Bft)
12.05.2016 16:00 9,2 C 9,0 C 83 % 1000,5 hPa 2,7 mm 1,3 km/h (1 Bft) SW 0,00 h 6,4 C 3,5 km/h (1 Bft)
12.05.2016 17:00 9,9 C 9,8 C 84 % 1000,3 hPa 0,7 mm 2,2 km/h (1 Bft) W 0,00 h 7,3 C 3,7 km/h (1 Bft)
12.05.2016 18:00 9,5 C 9,3 C 84 % 999,9 hPa 0,0 mm 3,3 km/h (1 Bft) SO 0,00 h 6,9 C 4,6 km/h (1 Bft)
12.05.2016 19:00 8,8 C 8,6 C 84 % 999,6 hPa 0,0 mm 1,1 km/h (0 Bft) SO 0,00 h 6,3 C 2,5 km/h (1 Bft)
12.05.2016 20:00 8,0 C 7,8 C 85 % 999,7 hPa 0,0 mm 1,1 km/h (1 Bft) N-NO 0,00 h 5,7 C 2,7 km/h (1 Bft)
12.05.2016 21:00 7,6 C 7,4 C 87 % 999,8 hPa 0,0 mm 0,8 km/h (0 Bft) SO 0,00 h 5,6 C 0,8 km/h (0 Bft)
12.05.2016 22:00 7,7 C 7,6 C 88 % 999,9 hPa 0,0 mm 2,7 km/h (1 Bft) W-SW 0,00 h 6,0 C 3,9 km/h (1 Bft)
12.05.2016 23:00 7,8 C 7,7 C 88 % 999,8 hPa 0,0 mm 3,9 km/h (1 Bft) SW 0,00 h 6,0 C 2,8 km/h (1 Bft)
13.05.2016 00:00 8,1 C 8,0 C 87 % 999,5 hPa 0,0 mm 2,7 km/h (1 Bft) S 0,00 h 6,0 C 4,3 km/h (1 Bft)
13.05.2016 01:00 8,2 C 8,4 C 84 % 999,4 hPa 0,0 mm 1,3 km/h (1 Bft) S-SW 0,00 h 5,8 C 2,6 km/h (1 Bft)
13.05.2016 02:00 8,3 C 8,3 C 82 % 999,2 hPa 0,0 mm 6,0 km/h (2 Bft) S 0,00 h 5,4 C 10,0 km/h (2 Bft)
13.05.2016 03:00 7,9 C 7,7 C 83 % 998,9 hPa 0,0 mm 4,4 km/h (1 Bft) S 0,00 h 5,1 C 4,5 km/h (1 Bft)
13.05.2016 04:00 7,7 C 7,5 C 85 % 998,7 hPa 0,0 mm 3,0 km/h (1 Bft) SW 0,00 h 5,3 C 4,2 km/h (1 Bft)
13.05.2016 05:00 7,5 C 7,4 C 86 % 998,5 hPa 0,0 mm 3,0 km/h (1 Bft) W 0,00 h 5,4 C 5,3 km/h (1 Bft)
13.05.2016 06:00 7,9 C 7,8 C 87 % 998,5 hPa 0,0 mm 3,1 km/h (1 Bft) S 0,00 h 5,9 C 4,4 km/h (1 Bft)
13.05.2016 07:00 8,5 C 8,4 C 86 % 998,8 hPa 0,0 mm 5,7 km/h (1 Bft) W-SW 0,00 h 6,3 C 9,2 km/h (2 Bft)
13.05.2016 08:00 9,0 C 8,8 C 86 % 998,8 hPa 0,7 mm 5,9 km/h (2 Bft) W-SW 0,00 h 6,7 C 10,8 km/h (2 Bft)
13.05.2016 09:00 9,2 C 9,0 C 85 % 999,1 hPa 0,0 mm 7,4 km/h (2 Bft) W 0,00 h 6,8 C 10,3 km/h (2 Bft)
13.05.2016 10:00 9,3 C 9,2 C 86 % 999,5 hPa 2,1 mm 6,6 km/h (2 Bft) W-SW 0,00 h 7,0 C 10,1 km/h (2 Bft)
13.05.2016 11:00 9,4 C 9,3 C 87 % 1000,3 hPa 2,1 mm 8,2 km/h (2 Bft) W-SW 0,00 h 7,3 C 10,8 km/h (2 Bft)
13.05.2016 12:00 9,5 C 9,3 C 88 % 1000,5 hPa 1,4 mm 9,4 km/h (2 Bft) W-SW 0,00 h 7,6 C 14,6 km/h (3 Bft)
13.05.2016 13:00 9,8 C 9,7 C 88 % 1001,1 hPa 2,1 mm 6,6 km/h (2 Bft) W-NW 0,00 h 7,9 C 8,1 km/h (2 Bft)
13.05.2016 14:00 10,4 C 10,3 C 87 % 1001,8 hPa 2,1 mm 3,6 km/h (1 Bft) W 0,00 h 8,3 C 3,3 km/h (1 Bft)
13.05.2016 15:00 11,4 C 11,3 C 86 % 1001,9 hPa 0,7 mm 6,7 km/h (2 Bft) SW 0,00 h 9,0 C 9,4 km/h (2 Bft)
13.05.2016 16:00 11,5 C 11,5 C 84 % 1002,2 hPa 0,0 mm 4,9 km/h (1 Bft) W-SW 0,00 h 8,9 C 5,3 km/h (1 Bft)
13.05.2016 17:00 11,6 C 11,7 C 85 % 1002,3 hPa 0,0 mm 2,4 km/h (1 Bft) W-SW 0,00 h 9,1 C 4,9 km/h (1 Bft)
13.05.2016 18:00 12,0 C 12,3 C 83 % 1002,3 hPa 0,0 mm 2,9 km/h (1 Bft) W-SW 0,00 h 9,2 C 5,8 km/h (2 Bft)
13.05.2016 19:00 11,2 C 11,4 C 83 % 1002,8 hPa 0,0 mm 4,4 km/h (1 Bft) W-NW 0,00 h 8,4 C 6,4 km/h (2 Bft)
13.05.2016 20:00 10,3 C 10,1 C 85 % 1003,4 hPa 0,0 mm 3,4 km/h (1 Bft) W-NW 0,00 h 7,9 C 6,2 km/h (2 Bft)
13.05.2016 21:00 9,8 C 9,7 C 87 % 1003,9 hPa 1,4 mm 3,1 km/h (1 Bft) W 0,00 h 7,8 C 4,2 km/h (1 Bft)
13.05.2016 22:00 9,6 C 9,5 C 89 % 1004,4 hPa 2,1 mm 5,1 km/h (1 Bft) SW 0,00 h 7,8 C 6,8 km/h (2 Bft)
13.05.2016 23:00 9,2 C 8,9 C 89 % 1004,4 hPa 3,4 mm 9,1 km/h (2 Bft) W-SW 0,00 h 7,5 C 10,8 km/h (2 Bft)
14.05.2016 00:00 8,7 C 8,6 C 90 % 1004,6 hPa 1,4 mm 1,3 km/h (1 Bft) S-SW 0,00 h 7,2 C 2,5 km/h (1 Bft)
14.05.2016 01:00 8,7 C 8,6 C 90 % 1004,7 hPa 0,0 mm 2,9 km/h (1 Bft) SW 0,00 h 7,2 C 5,6 km/h (1 Bft)
14.05.2016 02:00 8,6 C 8,5 C 90 % 1004,3 hPa 0,0 mm 4,1 km/h (1 Bft) SW 0,00 h 7,0 C 5,6 km/h (1 Bft)
14.05.2016 03:00 8,4 C 8,3 C 90 % 1004,4 hPa 0,0 mm 0,6 km/h (0 Bft) W-SW 0,00 h 6,9 C 1,1 km/h (1 Bft)
14.05.2016 04:00 8,4 C 8,3 C 90 % 1004,7 hPa 1,4 mm 2,7 km/h (1 Bft) SW 0,00 h 6,9 C 4,8 km/h (1 Bft)
14.05.2016 05:00 8,5 C 8,4 C 91 % 1004,9 hPa 1,4 mm 5,0 km/h (1 Bft) S 0,00 h 7,1 C 6,2 km/h (2 Bft)
14.05.2016 06:00 8,6 C 8,5 C 91 % 1005,3 hPa 1,4 mm 3,0 km/h (1 Bft) S 0,00 h 7,2 C 2,9 km/h (1 Bft)
14.05.2016 07:00 8,7 C 8,6 C 91 % 1005,8 hPa 0,7 mm 3,8 km/h (1 Bft) S-SW 0,00 h 7,4 C 5,4 km/h (1 Bft)
14.05.2016 08:00 9,0 C 8,9 C 91 % 1006,4 hPa 0,7 mm 1,1 km/h (1 Bft) S 0,00 h 7,5 C 0,7 km/h (0 Bft)
14.05.2016 09:00 9,3 C 9,2 C 90 % 1007,0 hPa 1,4 mm 1,1 km/h (0 Bft) SW 0,00 h 7,7 C 0,7 km/h (0 Bft)
14.05.2016 10:00 9,1 C 9,1 C 89 % 1008,0 hPa 0,7 mm 0,2 km/h (0 Bft) N 0,00 h 7,4 C 0,0 km/h (0 Bft)
14.05.2016 11:00 10,0 C 10,4 C 88 % 1008,5 hPa 0,0 mm 0,3 km/h (0 Bft) W-NW 0,00 h 8,2 C 1,3 km/h (1 Bft)
14.05.2016 12:00 9,7 C 9,6 C 86 % 1009,5 hPa 1,4 mm 2,8 km/h (1 Bft) W-SW 0,00 h 7,4 C 2,8 km/h (1 Bft)
14.05.2016 13:00 12,8 C 14,3 C 84 % 1009,6 hPa 0,0 mm 2,8 km/h (1 Bft) N-NW 0,42 h 10,1 C 4,1 km/h (1 Bft)
14.05.2016 14:00 15,5 C 19,6 C 75 % 1009,3 hPa 0,0 mm 2,9 km/h (1 Bft) W 1,00 h 11,0 C 5,6 km/h (1 Bft)
14.05.2016 15:00 15,8 C 19,6 C 64 % 1009,3 hPa 0,0 mm 5,1 km/h (1 Bft) NW 1,00 h 9,0 C 7,9 km/h (2 Bft)
14.05.2016 16:00 12,5 C 13,6 C 66 % 1009,6 hPa 0,0 mm 12,1 km/h (2 Bft) NW 0,00 h 6,2 C 16,9 km/h (3 Bft)
14.05.2016 17:00 9,6 C 9,4 C 76 % 1010,3 hPa 0,7 mm 7,2 km/h (2 Bft) W-SW 0,00 h 5,5 C 8,6 km/h (2 Bft)
14.05.2016 18:00 9,1 C 8,9 C 80 % 1010,5 hPa 0,0 mm 4,8 km/h (1 Bft) NW 0,00 h 5,8 C 7,0 km/h (2 Bft)
14.05.2016 19:00 8,3 C 8,1 C 82 % 1010,7 hPa 0,0 mm 3,2 km/h (1 Bft) W-SW 0,00 h 5,4 C 4,2 km/h (1 Bft)
14.05.2016 20:00 7,7 C 7,5 C 85 % 1011,1 hPa 0,7 mm 3,4 km/h (1 Bft) S 0,00 h 5,4 C 3,8 km/h (1 Bft)
14.05.2016 21:00 7,2 C 6,8 C 87 % 1011,8 hPa 2,7 mm 8,6 km/h (2 Bft) W-SW 0,00 h 5,1 C 12,9 km/h (3 Bft)
14.05.2016 22:00 6,4 C 6,2 C 88 % 1012,7 hPa 1,4 mm 4,5 km/h (1 Bft) W 0,00 h 4,5 C 7,6 km/h (2 Bft)
14.05.2016 23:00 5,2 C 4,8 C 86 % 1013,6 hPa 1,4 mm 6,1 km/h (2 Bft) S 0,00 h 3,1 C 7,3 km/h (2 Bft)
15.05.2016 00:00 4,3 C 4,0 C 87 % 1014,1 hPa 0,7 mm 3,7 km/h (1 Bft) S 0,00 h 2,4 C 3,0 km/h (1 Bft)
15.05.2016 01:00 4,0 C 3,8 C 88 % 1014,4 hPa 0,0 mm 0,7 km/h (0 Bft) O-SO 0,00 h 2,2 C 1,4 km/h (1 Bft)
15.05.2016 02:00 3,9 C 3,7 C 90 % 1014,5 hPa 0,0 mm 1,5 km/h (1 Bft) S-SO 0,00 h 2,4 C 2,5 km/h (1 Bft)
15.05.2016 03:00 4,0 C 3,8 C 90 % 1014,5 hPa 0,0 mm 1,3 km/h (1 Bft) S-SO 0,00 h 2,6 C 0,8 km/h (0 Bft)
15.05.2016 04:00 4,2 C 3,9 C 91 % 1014,8 hPa 0,0 mm 1,7 km/h (1 Bft) W-SW 0,00 h 2,8 C 2,8 km/h (1 Bft)
15.05.2016 05:00 3,9 C 3,6 C 90 % 1014,9 hPa 0,0 mm 1,9 km/h (1 Bft) S-SW 0,00 h 2,4 C 4,2 km/h (1 Bft)
15.05.2016 06:00 3,6 C 3,3 C 89 % 1015,3 hPa 0,0 mm 5,2 km/h (1 Bft) SW 0,00 h 2,0 C 6,0 km/h (2 Bft)
15.05.2016 07:00 5,1 C 5,9 C 86 % 1015,7 hPa 0,0 mm 2,0 km/h (1 Bft) SW 0,00 h 2,9 C 3,8 km/h (1 Bft)
15.05.2016 08:00 6,6 C 8,8 C 80 % 1016,1 hPa 0,0 mm 6,3 km/h (2 Bft) NW 0,58 h 3,4 C 10,4 km/h (2 Bft)
15.05.2016 09:00 5,9 C 6,2 C 77 % 1016,5 hPa 0,0 mm 9,5 km/h (2 Bft) W 0,00 h 2,3 C 12,9 km/h (3 Bft)
15.05.2016 10:00 5,7 C 6,2 C 78 % 1016,6 hPa 0,0 mm 7,1 km/h (2 Bft) W-SW 0,00 h 2,1 C 10,2 km/h (2 Bft)
15.05.2016 11:00 5,7 C 6,3 C 79 % 1017,0 hPa 0,0 mm 5,4 km/h (1 Bft) W-SW 0,00 h 2,4 C 6,5 km/h (2 Bft)
15.05.2016 12:00 7,2 C 8,7 C 76 % 1017,4 hPa 0,0 mm 7,0 km/h (2 Bft) S 0,42 h 3,2 C 10,5 km/h (2 Bft)
15.05.2016 13:00 8,5 C 9,9 C 73 % 1017,9 hPa 0,0 mm 10,2 km/h (2 Bft) W 0,50 h 3,9 C 15,1 km/h (3 Bft)
15.05.2016 14:00 7,8 C 8,6 C 69 % 1017,9 hPa 0,0 mm 14,4 km/h (3 Bft) W 0,00 h 2,4 C 21,3 km/h (4 Bft)
15.05.2016 15:00 8,2 C 9,0 C 65 % 1017,7 hPa 0,0 mm 12,8 km/h (3 Bft) W 0,00 h 2,0 C 18,5 km/h (3 Bft)
15.05.2016 16:00 8,1 C 8,6 C 62 % 1017,4 hPa 0,0 mm 11,6 km/h (2 Bft) W-SW 0,00 h 1,2 C 14,9 km/h (3 Bft)
15.05.2016 17:00 7,1 C 7,3 C 66 % 1017,7 hPa 0,0 mm 8,3 km/h (2 Bft) W 0,00 h 1,2 C 10,7 km/h (2 Bft)
15.05.2016 18:00 5,6 C 5,1 C 71 % 1017,8 hPa 0,0 mm 9,0 km/h (2 Bft) W-SW 0,00 h 0,7 C 12,4 km/h (3 Bft)
15.05.2016 19:00 5,3 C 5,0 C 73 % 1017,9 hPa 0,0 mm 6,7 km/h (2 Bft) SW 0,00 h 0,9 C 7,2 km/h (2 Bft)
15.05.2016 20:00 4,9 C 4,7 C 73 % 1018,4 hPa 0,0 mm 5,8 km/h (2 Bft) SW 0,00 h 0,4 C 8,1 km/h (2 Bft)
15.05.2016 21:00 4,4 C 4,1 C 73 % 1018,8 hPa 0,0 mm 7,9 km/h (2 Bft) W-SW 0,00 h -0,0 C 9,6 km/h (2 Bft)
15.05.2016 22:00 4,2 C 3,8 C 71 % 1019,2 hPa 0,0 mm 8,1 km/h (2 Bft) SW 0,00 h -0,7 C 9,7 km/h (2 Bft)
15.05.2016 23:00 3,8 C 3,6 C 70 % 1019,5 hPa 0,0 mm 2,1 km/h (1 Bft) W-SW 0,00 h -1,2 C 3,5 km/h (1 Bft)
Min-Datum _ 15.05.16 15.05.16 09.05.16 13.05.16 - 15.05.16 - - 15.05.16 15.05.16
_ Min-Zeit 06:15 06:15 14:10 06:00 - 04:00 - - 23:05 23:05
Minimum _ 3,5 C 3,2 C 37 % 998,4 hPa - 0,0 km/h (0 Bft) - - -1,3 C 0,0 km/h (0 Bft)
Max-Datum _ 09.05.16 09.05.16 15.05.16 15.05.16 13.05.16 15.05.16 - 15.05.16 11.05.16 15.05.16
_ Max-Zeit 11:05 11:15 04:00 23:35 23:05 14:20 - 13:20 12:05 14:15
Maximum _ 24,0 C 28,5 C 91 % 1019,6 hPa 3,4 mm 20,6 km/h
W (4 Bft)
- 0,08 h 13,6 C 36,7 km/h
W (5 Bft)
Durchschnitt _ 10,9 C 11,4 C 77 % 1008,2 hPa #44,7 mm 4,0 km/h (1 Bft) W-SW #15:50 h 6,6 C 5,5 km/h (1 Bft)